createdAt,value
2022-09-28T00:00:47.643Z,3.92
2022-09-28T00:03:14.251Z,3.42
2022-09-28T00:05:40.915Z,2.92
2022-09-28T00:08:07.624Z,3.78
2022-09-28T00:10:34.243Z,4.05
2022-09-28T00:13:01.504Z,3.40
2022-09-28T00:15:28.136Z,3.28
2022-09-28T00:17:54.805Z,3.53
2022-09-28T00:20:22.749Z,4.35
2022-09-28T00:22:49.406Z,3.60
2022-09-28T00:25:17.027Z,4.10
2022-09-28T00:27:43.884Z,3.20
2022-09-28T00:30:10.699Z,3.58
2022-09-28T00:32:37.457Z,4.63
2022-09-28T00:35:04.776Z,3.83
2022-09-28T00:37:31.548Z,8.40
2022-09-28T00:39:58.418Z,9.63
2022-09-28T00:42:26.846Z,5.75
2022-09-28T00:44:57.464Z,6.10
2022-09-28T00:47:56.774Z,5.82
2022-09-28T00:50:32.955Z,6.85
2022-09-28T00:53:31.159Z,9.23
2022-09-28T00:56:03.820Z,8.35
2022-09-28T00:58:32.761Z,8.90
2022-09-28T01:01:00.063Z,7.18
2022-09-28T01:03:28.502Z,7.20
2022-09-28T01:05:57.373Z,7.50
2022-09-28T01:08:24.986Z,8.48
2022-09-28T01:10:52.080Z,10.52
2022-09-28T01:13:19.360Z,10.15
2022-09-28T01:16:30.953Z,6.28
2022-09-28T01:19:24.496Z,8.20
2022-09-28T01:21:56.194Z,11.85
2022-09-28T01:24:40.424Z,7.55
2022-09-28T01:27:16.718Z,10.95
2022-09-28T01:29:47.508Z,9.60
2022-09-28T01:32:17.179Z,9.30
2022-09-28T01:35:07.671Z,9.27
2022-09-28T01:37:41.834Z,9.15
2022-09-28T01:40:09.191Z,9.60
2022-09-28T01:42:38.363Z,12.60
2022-09-28T01:45:09.938Z,9.57
2022-09-28T01:47:38.765Z,8.68
2022-09-28T01:50:10.528Z,11.15
2022-09-28T01:53:09.471Z,8.50
2022-09-28T01:55:43.042Z,8.38
2022-09-28T01:58:16.635Z,8.73
2022-09-28T02:00:46.593Z,28.00
2022-09-28T02:03:20.866Z,10.50
2022-09-28T02:06:01.117Z,8.10
2022-09-28T02:09:11.776Z,8.80
2022-09-28T02:11:43.086Z,9.63
2022-09-28T02:14:12.245Z,8.13
2022-09-28T02:16:46.392Z,8.38
2022-09-28T02:19:16.640Z,9.65
2022-09-28T02:22:01.633Z,11.70
2022-09-28T02:24:54.666Z,7.43
2022-09-28T02:27:41.623Z,7.60
2022-09-28T02:30:09.037Z,6.72
2022-09-28T02:32:41.268Z,7.07
2022-09-28T02:35:16.943Z,6.38
2022-09-28T02:37:43.917Z,10.82
2022-09-28T02:40:21.972Z,5.90
2022-09-28T02:43:06.974Z,5.45
2022-09-28T02:45:52.055Z,6.40
2022-09-28T02:48:43.614Z,8.18
2022-09-28T02:51:14.500Z,7.97
2022-09-28T02:54:06.570Z,8.15
2022-09-28T02:56:35.838Z,8.98
2022-09-28T02:59:08.136Z,9.68
2022-09-28T03:01:51.521Z,11.32
2022-09-28T03:04:39.958Z,11.75
2022-09-28T03:07:41.750Z,11.82
2022-09-28T03:10:20.058Z,10.77
2022-09-28T03:12:47.796Z,12.85
2022-09-28T03:15:30.573Z,20.35
2022-09-28T03:17:58.136Z,13.65
2022-09-28T03:20:25.867Z,12.60
2022-09-28T03:23:19.626Z,13.40
2022-09-28T03:25:39.183Z,12.98
2022-09-28T03:28:05.848Z,18.50
2022-09-28T03:30:32.517Z,10.77
2022-09-28T03:33:00.420Z,13.52
2022-09-28T03:35:27.097Z,10.68
2022-09-28T03:37:57.023Z,11.32
2022-09-28T03:40:24.040Z,10.10
2022-09-28T03:42:50.813Z,9.63
2022-09-28T03:45:17.482Z,10.98
2022-09-28T03:47:47.284Z,11.02
2022-09-28T03:50:14.302Z,14.68
2022-09-28T03:52:40.961Z,10.85
2022-09-28T03:55:07.963Z,9.90
2022-09-28T03:57:34.658Z,9.48
2022-09-28T04:00:01.537Z,9.70
2022-09-28T04:02:28.266Z,9.60
2022-09-28T04:04:54.966Z,9.90
2022-09-28T04:07:21.611Z,10.43
2022-09-28T04:09:48.233Z,14.10
2022-09-28T04:12:14.912Z,17.23
2022-09-28T04:14:41.564Z,16.00
2022-09-28T04:17:08.186Z,15.60
2022-09-28T04:19:34.884Z,12.43
2022-09-28T04:22:02.122Z,16.05
2022-09-28T04:24:28.843Z,15.13
2022-09-28T04:27:18.445Z,12.73
2022-09-28T04:29:45.172Z,12.02
2022-09-28T04:32:12.122Z,9.85
2022-09-28T04:34:43.178Z,9.88
2022-09-28T04:37:10.667Z,10.32
2022-09-28T04:39:37.453Z,10.00
2022-09-28T04:42:04.095Z,16.92
2022-09-28T04:44:30.809Z,42.08
2022-09-28T04:46:59.719Z,40.47
2022-09-28T04:49:29.614Z,35.33
2022-09-28T04:51:56.258Z,33.83
2022-09-28T04:54:22.899Z,23.35
2022-09-28T04:56:49.609Z,18.20
2022-09-28T04:59:16.412Z,16.63
2022-09-28T05:01:43.138Z,13.02
2022-09-28T05:04:09.835Z,12.45
2022-09-28T05:06:36.526Z,12.40
2022-09-28T05:09:03.164Z,9.30
2022-09-28T05:11:29.911Z,9.48
2022-09-28T05:13:56.726Z,9.32
2022-09-28T05:16:25.201Z,10.55
2022-09-28T05:18:56.008Z,9.60
2022-09-28T05:21:25.191Z,10.52
2022-09-28T05:23:52.413Z,9.90
2022-09-28T05:26:19.306Z,8.82
2022-09-28T05:28:45.974Z,8.13
2022-09-28T05:31:12.648Z,8.82
2022-09-28T05:33:39.631Z,10.63
2022-09-28T05:36:09.271Z,10.05
2022-09-28T05:38:35.946Z,10.02
2022-09-28T05:41:06.377Z,10.77
2022-09-28T05:43:33.709Z,11.65
2022-09-28T05:46:00.609Z,10.20
2022-09-28T05:48:28.421Z,10.05
2022-09-28T05:50:55.242Z,17.88
2022-09-28T05:53:22.218Z,13.77
2022-09-28T05:55:48.950Z,15.02
2022-09-28T05:58:15.737Z,12.90
2022-09-28T06:00:42.431Z,13.20
2022-09-28T06:03:12.970Z,16.23
2022-09-28T06:05:40.161Z,12.27
2022-09-28T06:08:08.518Z,10.82
2022-09-28T06:10:35.705Z,8.48
2022-09-28T06:13:02.408Z,10.43
2022-09-28T06:15:31.001Z,7.57
2022-09-28T06:17:59.114Z,7.45
2022-09-28T06:20:27.005Z,8.13
2022-09-28T06:22:53.950Z,8.80
2022-09-28T06:25:21.725Z,9.57
2022-09-28T06:28:02.847Z,7.75
2022-09-28T06:32:58.331Z,9.07
2022-09-28T06:35:26.368Z,10.75
2022-09-28T06:37:53.784Z,7.68
2022-09-28T06:40:21.309Z,9.57
2022-09-28T06:43:10.597Z,7.70
2022-09-28T06:45:38.464Z,7.50
2022-09-28T06:48:05.745Z,6.78
2022-09-28T06:50:35.996Z,8.27
2022-09-28T06:53:02.878Z,6.95
2022-09-28T06:55:29.818Z,6.93
2022-09-28T06:58:09.392Z,7.35
2022-09-28T07:00:37.689Z,5.97
2022-09-28T07:03:10.600Z,4.35
2022-09-28T07:05:41.439Z,5.72
2022-09-28T07:08:08.410Z,4.47
2022-09-28T07:10:35.075Z,6.20
2022-09-28T07:13:04.165Z,5.97
2022-09-28T07:15:32.264Z,8.43
2022-09-28T07:18:03.916Z,11.75
2022-09-28T07:20:39.061Z,10.88
2022-09-28T07:23:18.837Z,9.30
2022-09-28T07:25:48.036Z,8.70
2022-09-28T07:28:15.992Z,10.48
2022-09-28T07:30:44.686Z,10.90
2022-09-28T07:33:14.611Z,9.55
2022-09-28T07:35:44.451Z,8.85
2022-09-28T07:38:11.349Z,9.68
2022-09-28T07:40:56.577Z,10.13
2022-09-28T07:43:23.369Z,6.10
2022-09-28T07:45:52.494Z,5.07
2022-09-28T07:48:19.721Z,6.43
2022-09-28T07:50:56.904Z,7.15
2022-09-28T07:53:25.271Z,5.20
2022-09-28T07:55:51.859Z,6.75
2022-09-28T07:58:19.491Z,7.68
2022-09-28T08:00:49.864Z,5.72
2022-09-28T08:03:17.463Z,5.80
2022-09-28T08:05:44.559Z,3.85
2022-09-28T08:08:11.266Z,3.30
2022-09-28T08:10:38.427Z,4.35
2022-09-28T08:13:07.478Z,6.22
2022-09-28T08:15:37.001Z,5.82
2022-09-28T08:18:07.099Z,4.78
2022-09-28T08:20:52.642Z,4.93
2022-09-28T08:23:20.633Z,5.72
2022-09-28T08:25:49.173Z,4.72
2022-09-28T08:28:17.762Z,4.68
2022-09-28T08:30:48.481Z,4.75
2022-09-28T08:33:17.991Z,4.10
2022-09-28T08:35:46.907Z,2.30
2022-09-28T08:38:14.014Z,3.03
2022-09-28T08:41:09.968Z,3.00
2022-09-28T08:43:42.567Z,3.33
2022-09-28T08:46:10.425Z,4.00
2022-09-28T08:48:51.737Z,2.90
2022-09-28T08:51:32.828Z,3.92
2022-09-28T08:54:18.661Z,2.92
2022-09-28T08:56:49.965Z,3.40
2022-09-28T08:59:25.841Z,2.75
2022-09-28T09:02:03.980Z,3.45
2022-09-28T09:04:32.968Z,3.15
2022-09-28T09:07:23.437Z,3.80
2022-09-28T09:10:08.661Z,3.00
2022-09-28T09:12:47.023Z,2.67
2022-09-28T09:15:49.055Z,3.03
2022-09-28T09:18:26.314Z,2.47
2022-09-28T09:20:57.637Z,3.60
2022-09-28T09:23:43.433Z,2.47
2022-09-28T09:26:32.913Z,1.90
2022-09-28T09:29:08.470Z,2.90
2022-09-28T09:31:59.684Z,3.20
2022-09-28T09:34:43.500Z,2.92
2022-09-28T09:37:34.489Z,2.33
2022-09-28T09:41:02.772Z,2.95
2022-09-28T09:43:58.937Z,3.00
2022-09-28T09:46:28.415Z,2.80
2022-09-28T09:49:07.176Z,1.85
2022-09-28T09:51:37.392Z,2.58
2022-09-28T09:54:24.358Z,1.48
2022-09-28T09:56:59.548Z,1.73
2022-09-28T09:59:38.321Z,1.70
2022-09-28T10:02:29.354Z,1.80
2022-09-28T10:05:07.122Z,2.10
2022-09-28T10:07:43.284Z,2.03
2022-09-28T10:10:49.937Z,1.60
2022-09-28T10:13:16.626Z,2.38
2022-09-28T10:15:45.362Z,1.85
2022-09-28T10:18:14.626Z,2.13
2022-09-28T10:20:43.557Z,1.20
2022-09-28T10:23:18.246Z,2.30
2022-09-28T10:25:46.420Z,1.77
2022-09-28T10:28:18.075Z,1.27
2022-09-28T10:30:45.122Z,1.38
2022-09-28T10:33:30.390Z,2.53
2022-09-28T10:35:57.574Z,1.38
2022-09-28T10:38:24.737Z,1.48
2022-09-28T10:40:56.066Z,1.63
2022-09-28T10:43:35.838Z,1.30
2022-09-28T10:46:07.438Z,1.52
2022-09-28T10:49:03.796Z,1.50
2022-09-28T10:51:43.859Z,1.92
2022-09-28T10:54:17.875Z,2.25
2022-09-28T10:56:45.181Z,2.60
2022-09-28T10:59:29.884Z,2.00
2022-09-28T11:02:00.996Z,2.10
2022-09-28T11:04:30.111Z,2.60
2022-09-28T11:09:32.690Z,2.28
2022-09-28T11:12:00.294Z,1.42
2022-09-28T11:14:39.599Z,1.60
2022-09-28T11:17:28.630Z,2.50
2022-09-28T11:20:16.500Z,1.75
2022-09-28T11:22:44.866Z,2.65
2022-09-28T11:25:17.233Z,2.33
2022-09-28T11:27:52.810Z,2.60
2022-09-28T11:30:25.643Z,2.30
2022-09-28T11:32:54.555Z,2.67
2022-09-28T11:35:25.316Z,2.15
2022-09-28T11:38:13.465Z,1.58
2022-09-28T11:40:50.109Z,2.08
2022-09-28T11:43:38.012Z,2.17
2022-09-28T11:46:38.907Z,1.50
2022-09-28T11:49:18.066Z,1.30
2022-09-28T11:51:46.339Z,1.80
2022-09-28T11:54:14.866Z,1.73
2022-09-28T11:59:16.095Z,1.65
2022-09-28T12:01:54.713Z,2.53
2022-09-28T12:04:46.451Z,1.48
2022-09-28T12:07:26.082Z,1.70
2022-09-28T12:10:13.271Z,1.50
2022-09-28T12:12:45.693Z,1.48
2022-09-28T12:15:29.405Z,2.13
2022-09-28T12:18:14.671Z,1.60
2022-09-28T12:20:47.619Z,2.50
2022-09-28T12:23:31.197Z,1.73
2022-09-28T12:26:10.780Z,1.80
2022-09-28T12:28:46.244Z,1.80
2022-09-28T12:31:36.186Z,2.00
2022-09-28T12:34:03.170Z,3.03
2022-09-28T12:36:32.621Z,2.33
2022-09-28T12:39:35.491Z,1.40
2022-09-28T12:42:21.212Z,2.65
2022-09-28T12:45:07.183Z,2.35
2022-09-28T12:47:58.289Z,1.85
2022-09-28T12:50:38.530Z,2.00
2022-09-28T12:53:38.875Z,2.92
2022-09-28T12:56:11.888Z,1.83
2022-09-28T12:59:01.074Z,3.28
2022-09-28T13:02:10.283Z,2.97
2022-09-28T13:05:10.137Z,2.47
2022-09-28T13:08:15.584Z,3.75
2022-09-28T13:13:19.046Z,2.55
2022-09-28T13:16:10.461Z,3.13
2022-09-28T13:18:52.135Z,2.55
2022-09-28T13:21:51.428Z,2.88
2022-09-28T13:24:33.050Z,2.85
2022-09-28T13:27:05.006Z,3.13
2022-09-28T13:29:32.166Z,4.35
2022-09-28T13:32:00.126Z,6.80
2022-09-28T13:34:32.926Z,3.80
2022-09-28T13:37:16.908Z,3.75
2022-09-28T13:39:46.314Z,4.28
2022-09-28T13:42:42.279Z,4.63
2022-09-28T13:45:14.797Z,4.80
2022-09-28T13:48:03.105Z,5.50
2022-09-28T13:50:44.834Z,5.25
2022-09-28T13:53:11.815Z,4.53
2022-09-28T13:55:57.317Z,6.15
2022-09-28T13:58:38.820Z,7.18
2022-09-28T14:01:16.252Z,6.53
2022-09-28T14:04:15.985Z,5.85
2022-09-28T14:06:48.723Z,5.32
2022-09-28T14:09:41.807Z,6.07
2022-09-28T14:12:37.641Z,5.38
2022-09-28T14:15:38.506Z,7.03
2022-09-28T14:18:32.227Z,6.25
2022-09-28T14:21:01.925Z,7.85
2022-09-28T14:23:37.297Z,6.35
2022-09-28T14:26:41.853Z,5.47
2022-09-28T14:29:27.870Z,5.60
2022-09-28T14:32:05.334Z,4.80
2022-09-28T14:34:42.856Z,5.22
2022-09-28T14:37:57.489Z,4.15
2022-09-28T14:40:49.544Z,4.22
2022-09-28T14:43:34.958Z,5.63
2022-09-28T14:46:28.432Z,4.97
2022-09-28T14:49:14.789Z,5.10
2022-09-28T14:51:41.360Z,5.13
2022-09-28T14:54:08.004Z,3.80
2022-09-28T14:56:43.703Z,5.32
2022-09-28T14:59:14.693Z,4.50
2022-09-28T15:01:44.226Z,5.80
2022-09-28T15:04:12.813Z,6.68
2022-09-28T15:06:47.298Z,5.55
2022-09-28T15:09:36.632Z,5.32
2022-09-28T15:12:15.678Z,4.72
2022-09-28T15:14:54.121Z,4.88
2022-09-28T15:17:27.350Z,4.45
2022-09-28T15:20:12.587Z,5.28
2022-09-28T15:22:45.860Z,4.30
2022-09-28T15:25:14.945Z,5.30
2022-09-28T15:27:41.624Z,7.95
2022-09-28T15:30:25.417Z,8.88
2022-09-28T15:32:56.882Z,12.52
2022-09-28T15:35:26.308Z,10.45
2022-09-28T15:37:54.902Z,10.85
2022-09-28T15:40:32.954Z,6.60
2022-09-28T15:42:59.993Z,8.75
2022-09-28T15:45:30.812Z,12.50
2022-09-28T15:48:18.648Z,9.05
2022-09-28T15:51:11.088Z,7.97
2022-09-28T15:53:51.254Z,173.85
2022-09-28T15:56:17.968Z,143.20
2022-09-28T15:59:25.001Z,193.70
2022-09-28T16:02:08.090Z,525.47
2022-09-28T16:04:51.818Z,341.52
2022-09-28T16:07:30.699Z,373.48
2022-09-28T16:10:06.500Z,64.32
2022-09-28T16:12:52.365Z,340.10
2022-09-28T16:15:32.587Z,40.53
2022-09-28T16:18:06.803Z,71.03
2022-09-28T16:20:36.551Z,10.18
2022-09-28T16:23:17.442Z,37.22
2022-09-28T16:25:51.860Z,8.60
2022-09-28T16:28:34.593Z,6.45
2022-09-28T16:31:06.252Z,6.90
2022-09-28T16:33:56.024Z,7.25
2022-09-28T16:36:23.760Z,7.88
2022-09-28T16:38:50.385Z,8.82
2022-09-28T16:41:20.747Z,9.00
2022-09-28T16:43:47.922Z,8.57
2022-09-28T16:46:17.574Z,8.93
2022-09-28T16:48:49.011Z,8.80
2022-09-28T16:51:16.754Z,7.85
2022-09-28T16:54:02.442Z,9.30
2022-09-28T16:56:29.492Z,7.90
2022-09-28T16:58:56.356Z,8.98
2022-09-28T17:01:25.497Z,7.78
2022-09-28T17:03:52.161Z,8.57
2022-09-28T17:06:20.006Z,8.15
2022-09-28T17:08:47.010Z,8.82
2022-09-28T17:11:23.675Z,8.05
2022-09-28T17:13:52.074Z,9.38
2022-09-28T17:16:36.732Z,9.50
2022-09-28T17:19:22.121Z,11.00
2022-09-28T17:21:49.040Z,10.00
2022-09-28T17:24:15.664Z,9.07
2022-09-28T17:26:44.513Z,9.48
2022-09-28T17:29:14.630Z,11.23
2022-09-28T17:31:45.720Z,7.55
2022-09-28T17:34:13.786Z,8.57
2022-09-28T17:36:41.646Z,9.27
2022-09-28T17:39:16.659Z,8.90
2022-09-28T17:44:28.651Z,10.85
2022-09-28T17:46:55.814Z,8.75
2022-09-28T17:49:22.493Z,8.82
2022-09-28T17:51:50.349Z,12.63
2022-09-28T17:54:21.154Z,7.80
2022-09-28T17:56:48.304Z,7.85
2022-09-28T17:59:17.721Z,8.57
2022-09-28T18:01:44.519Z,8.40
2022-09-28T18:04:33.372Z,6.63
2022-09-28T18:07:00.272Z,8.32
2022-09-28T18:09:26.941Z,7.93
2022-09-28T18:12:00.906Z,8.77
2022-09-28T18:14:28.532Z,8.88
2022-09-28T18:16:55.210Z,8.57
2022-09-28T18:19:21.843Z,10.88
2022-09-28T18:21:48.579Z,9.13
2022-09-28T18:24:15.364Z,9.20
2022-09-28T18:26:41.991Z,10.38
2022-09-28T18:29:08.664Z,10.07
2022-09-28T18:31:35.344Z,11.63
2022-09-28T18:34:02.054Z,9.25
2022-09-28T18:36:35.607Z,7.90
2022-09-28T18:39:02.817Z,8.70
2022-09-28T18:41:29.486Z,7.70
2022-09-28T18:44:00.684Z,8.45
2022-09-28T18:46:28.893Z,8.57
2022-09-28T18:48:56.135Z,9.65
2022-09-28T18:51:22.982Z,8.57
2022-09-28T18:53:50.235Z,9.10
2022-09-28T18:56:18.434Z,8.65
2022-09-28T18:58:45.923Z,6.55
2022-09-28T19:01:35.246Z,5.30
2022-09-28T19:04:06.912Z,7.70
2022-09-28T19:06:34.456Z,7.88
2022-09-28T19:09:01.579Z,7.65
2022-09-28T19:11:28.854Z,6.90
2022-09-28T19:13:55.991Z,6.43
2022-09-28T19:16:28.657Z,6.47
2022-09-28T19:18:58.997Z,7.35
2022-09-28T19:21:27.142Z,7.22
2022-09-28T19:23:55.509Z,6.88
2022-09-28T19:26:24.345Z,8.18
2022-09-28T19:28:51.064Z,8.57
2022-09-28T19:31:18.460Z,7.07
2022-09-28T19:33:46.611Z,8.43
2022-09-28T19:36:15.820Z,7.45
2022-09-28T19:41:35.887Z,8.50
2022-09-28T19:44:08.512Z,10.05
2022-09-28T19:46:36.773Z,9.13
2022-09-28T19:49:06.225Z,9.75
2022-09-28T19:51:33.313Z,9.07
2022-09-28T19:54:04.646Z,9.05
2022-09-28T19:56:32.797Z,7.32
2022-09-28T19:59:03.269Z,11.30
2022-09-28T20:01:30.775Z,10.77
2022-09-28T20:03:59.162Z,10.25
2022-09-28T20:06:26.502Z,6.78
2022-09-28T20:08:53.457Z,9.13
2022-09-28T20:11:20.642Z,7.25
2022-09-28T20:13:48.338Z,6.88
2022-09-28T20:16:17.455Z,5.75
2022-09-28T20:18:50.283Z,7.82
2022-09-28T20:21:20.112Z,7.38
2022-09-28T20:23:47.572Z,6.55
2022-09-28T20:26:15.163Z,7.22
2022-09-28T20:28:41.870Z,7.88
2022-09-28T20:31:12.343Z,7.10
2022-09-28T20:33:39.250Z,6.85
2022-09-28T20:36:10.075Z,7.00
2022-09-28T20:38:40.499Z,9.20
2022-09-28T20:41:08.558Z,8.15
2022-09-28T20:43:35.306Z,6.93
2022-09-28T20:46:03.458Z,10.15
2022-09-28T20:48:30.174Z,8.27
2022-09-28T20:51:02.997Z,15.90
2022-09-28T20:53:30.858Z,16.15
2022-09-28T20:56:08.821Z,8.05
2022-09-28T20:58:38.501Z,8.88
2022-09-28T21:01:08.317Z,7.45
2022-09-28T21:03:35.807Z,8.88
2022-09-28T21:06:03.492Z,8.57
2022-09-28T21:08:31.082Z,10.00
2022-09-28T21:10:57.734Z,8.95
2022-09-28T21:13:25.508Z,10.35
2022-09-28T21:15:52.474Z,9.73
2022-09-28T21:18:20.223Z,9.60
2022-09-28T21:20:48.856Z,10.65
2022-09-28T21:23:16.407Z,11.55
2022-09-28T21:25:45.637Z,9.70
2022-09-28T21:28:13.791Z,9.80
2022-09-28T21:30:41.721Z,9.82
2022-09-28T21:33:08.821Z,16.63
2022-09-28T21:35:36.715Z,22.65
2022-09-28T21:38:03.887Z,21.92
2022-09-28T21:40:30.831Z,24.23
2022-09-28T21:42:57.536Z,21.80
2022-09-28T21:45:25.214Z,20.83
2022-09-28T21:47:55.537Z,22.70
2022-09-28T21:50:26.590Z,18.85
2022-09-28T21:52:54.665Z,15.60
2022-09-28T21:55:23.317Z,17.75
2022-09-28T21:57:51.118Z,18.42
2022-09-28T22:00:23.138Z,16.65
2022-09-28T22:02:50.710Z,16.88
2022-09-28T22:05:17.934Z,18.45
2022-09-28T22:07:44.679Z,18.13
2022-09-28T22:10:13.341Z,18.35
2022-09-28T22:12:40.023Z,14.55
2022-09-28T22:15:07.481Z,17.25
2022-09-28T22:17:34.135Z,16.70
2022-09-28T22:20:01.014Z,15.88
2022-09-28T22:22:29.282Z,14.63
2022-09-28T22:24:56.273Z,18.27
2022-09-28T22:27:24.062Z,18.33
2022-09-28T22:29:51.156Z,18.83
2022-09-28T22:32:17.871Z,16.13
2022-09-28T22:34:44.515Z,17.63
2022-09-28T22:37:11.266Z,21.33
2022-09-28T22:39:38.091Z,20.38
2022-09-28T22:42:05.057Z,16.80
2022-09-28T22:44:31.741Z,22.67
2022-09-28T22:46:58.495Z,21.75
2022-09-28T22:49:25.149Z,19.92
2022-09-28T22:51:52.496Z,16.70
2022-09-28T22:54:19.252Z,21.55
2022-09-28T22:56:45.953Z,24.10
2022-09-28T22:59:12.654Z,25.05
2022-09-28T23:01:39.501Z,28.40
2022-09-28T23:04:06.382Z,28.95
2022-09-28T23:06:33.300Z,29.38
2022-09-28T23:09:00.751Z,28.10
2022-09-28T23:11:28.574Z,26.92
2022-09-28T23:13:59.213Z,27.85
2022-09-28T23:16:26.860Z,23.00
2022-09-28T23:18:55.380Z,32.80
2022-09-28T23:21:24.616Z,31.60
2022-09-28T23:23:57.057Z,31.73
2022-09-28T23:26:26.290Z,28.23
2022-09-28T23:28:53.886Z,33.15
2022-09-28T23:31:23.374Z,30.35
2022-09-28T23:33:50.829Z,31.85
2022-09-28T23:36:18.128Z,32.78
2022-09-28T23:38:44.907Z,33.85
2022-09-28T23:41:11.706Z,28.48
2022-09-28T23:43:38.441Z,30.38
2022-09-28T23:46:05.645Z,25.33
2022-09-28T23:48:32.586Z,30.38
2022-09-28T23:50:59.578Z,27.13
2022-09-28T23:53:26.618Z,24.35
2022-09-28T23:55:54.695Z,24.95
2022-09-28T23:58:21.590Z,23.58
